Time;durP1;ratioP1;P1;durP2;ratioP2;P2;SDS_P1;SDS_P2;PMS_P1;PMS_P2;Temp;Humidity;BMP_temperature;BMP_pressure;BME280_temperature;BME280_humidity;BME280_pressure;Samples;Min_cycle;Max_cycle;Signal;HPM_P1;HPM_P2
2023/10/25 00:00:30;;;;;;;1999.90;999.90;;;;;;;12.77;79.62;95988.94;5136370;27;20104;-62
2023/10/25 00:02:58;;;;;;;1999.90;999.90;;;;;;;12.77;79.57;95979.25;5136251;27;20118;-63
2023/10/25 00:05:26;;;;;;;1999.90;999.90;;;;;;;12.80;80.83;95986.13;5136174;27;20047;-64
2023/10/25 00:07:53;;;;;;;1999.90;999.90;;;;;;;12.80;79.41;95998.41;5135363;27;20074;-62
2023/10/25 00:10:20;;;;;;;1999.90;999.90;;;;;;;12.73;79.34;95997.88;5136094;27;20049;-61
2023/10/25 00:12:47;;;;;;;1999.90;999.90;;;;;;;12.72;79.93;96004.06;5136032;27;20043;-63
2023/10/25 00:15:14;;;;;;;1999.90;999.90;;;;;;;12.68;80.21;95998.16;5136249;27;20051;-63
2023/10/25 00:17:41;;;;;;;1999.90;999.90;;;;;;;12.73;80.35;95997.88;5136032;27;20050;-62
2023/10/25 00:20:11;;;;;;;1999.90;999.90;;;;;;;12.69;79.83;95997.22;5135789;27;20449;-62
2023/10/25 00:22:38;;;;;;;1999.90;999.90;;;;;;;12.68;79.59;95999.94;5135903;27;20476;-61
2023/10/25 00:25:05;;;;;;;1999.90;999.90;;;;;;;12.71;79.85;95998.00;5135751;27;20047;-62
2023/10/25 00:27:32;;;;;;;1999.90;999.90;;;;;;;12.73;79.66;95988.25;5135711;27;20047;-63
2023/10/25 00:29:59;;;;;;;1999.90;999.90;;;;;;;12.68;80.23;95986.81;5135646;27;20555;-64
2023/10/25 00:32:26;;;;;;;1999.90;999.90;;;;;;;12.68;80.43;95982.41;5135706;27;20051;-61
2023/10/25 00:34:53;;;;;;;1999.90;999.90;;;;;;;12.68;82.00;95960.56;5135550;27;20404;-63
2023/10/25 00:37:22;;;;;;;1999.90;999.90;;;;;;;12.70;81.71;95961.34;5135473;27;20091;-63
2023/10/25 00:39:49;;;;;;;1999.90;999.90;;;;;;;12.73;80.73;95971.63;5135509;27;20043;-61
2023/10/25 00:42:16;;;;;;;1999.90;999.90;;;;;;;12.74;81.27;95960.22;5135607;27;20096;-64
2023/10/25 00:44:43;;;;;;;1999.90;999.90;;;;;;;12.81;80.60;95958.94;5135287;27;20500;-61
2023/10/25 00:47:10;;;;;;;1999.90;999.90;;;;;;;12.80;80.79;95951.16;5135219;27;20138;-62
2023/10/25 00:49:37;;;;;;;1999.90;999.90;;;;;;;12.82;81.62;95951.94;5135474;27;20051;-63
2023/10/25 00:52:05;;;;;;;1999.90;999.90;;;;;;;12.84;81.03;95947.41;5135370;27;20043;-63
2023/10/25 00:54:34;;;;;;;1999.90;999.90;;;;;;;12.85;80.06;95949.09;5135169;27;20514;-63
2023/10/25 00:57:01;;;;;;;1999.90;999.90;;;;;;;12.80;79.69;95953.78;5135042;27;20381;-64
2023/10/25 00:59:28;;;;;;;1999.90;999.90;;;;;;;12.82;80.41;95955.38;5134999;27;20075;-64
2023/10/25 01:01:56;;;;;;;1999.90;999.90;;;;;;;12.83;80.65;95953.63;5135352;27;20043;-62
2023/10/25 01:04:23;;;;;;;1999.90;999.90;;;;;;;12.86;80.90;95935.91;5134983;27;20051;-62
2023/10/25 01:06:50;;;;;;;1999.90;999.90;;;;;;;12.89;81.05;95948.03;5134977;27;20047;-61
2023/10/25 01:09:17;;;;;;;1999.90;999.90;;;;;;;12.81;81.28;95951.06;5134840;27;20092;-62
2023/10/25 01:11:45;;;;;;;1999.90;999.90;;;;;;;12.85;81.63;95956.97;5134910;27;20150;-62
2023/10/25 01:14:12;;;;;;;1999.90;999.90;;;;;;;12.83;80.83;95959.72;5135093;27;20059;-64
2023/10/25 01:16:39;;;;;;;1999.90;999.90;;;;;;;12.79;80.95;95963.44;5134930;27;20123;-63
2023/10/25 01:19:06;;;;;;;1999.90;999.90;;;;;;;12.79;80.86;95966.03;5134876;27;20129;-61
2023/10/25 01:21:33;;;;;;;1999.90;999.90;;;;;;;12.82;80.72;95970.31;5134900;27;20122;-61
2023/10/25 01:24:02;;;;;;;1999.90;999.90;;;;;;;12.82;80.56;95967.69;5134542;27;20089;-62
2023/10/25 01:26:29;;;;;;;1999.90;999.90;;;;;;;12.82;80.50;95968.50;5134576;27;20053;-63
2023/10/25 01:28:55;;;;;;;1999.90;999.90;;;;;;;12.85;80.32;95978.84;5134470;27;20382;-63
2023/10/25 01:31:23;;;;;;;1999.90;999.90;;;;;;;12.84;80.11;95974.53;5134473;27;20512;-63
2023/10/25 01:33:51;;;;;;;1999.90;999.90;;;;;;;12.76;80.91;95971.47;5134275;27;20053;-63
2023/10/25 01:36:18;;;;;;;1999.90;999.90;;;;;;;12.77;80.87;95965.31;5134289;27;20044;-63
2023/10/25 01:38:45;;;;;;;1999.90;999.90;;;;;;;12.67;80.62;95956.25;5134392;27;20046;-64
2023/10/25 01:41:16;;;;;;;1999.90;999.90;;;;;;;12.63;80.71;95948.56;5134500;27;20096;-63
2023/10/25 01:43:44;;;;;;;1999.90;999.90;;;;;;;12.64;80.88;95931.00;5134327;27;20043;-64
2023/10/25 01:46:11;;;;;;;1999.90;999.90;;;;;;;12.58;80.56;95924.34;5134487;27;20096;-63
2023/10/25 01:48:38;;;;;;;1999.90;999.90;;;;;;;12.55;81.60;95913.19;5134236;27;20409;-63
2023/10/25 01:51:06;;;;;;;1999.90;999.90;;;;;;;12.53;81.85;95917.66;5134139;27;20085;-64
2023/10/25 01:53:34;;;;;;;1999.90;999.90;;;;;;;12.55;82.04;95907.94;5134124;27;20527;-63
2023/10/25 01:56:01;;;;;;;1999.90;999.90;;;;;;;12.58;82.22;95910.41;5133997;27;20480;-62
2023/10/25 01:58:30;;;;;;;1999.90;999.90;;;;;;;12.57;81.75;95914.78;5134280;27;20043;-62
2023/10/25 02:00:57;;;;;;;1999.90;999.90;;;;;;;12.59;82.03;95919.94;5134298;27;20047;-62
2023/10/25 02:03:24;;;;;;;1999.90;999.90;;;;;;;12.60;82.14;95914.63;5134119;27;20044;-64
2023/10/25 02:05:52;;;;;;;1999.90;999.90;;;;;;;12.62;81.83;95917.97;5134256;27;20050;-63
2023/10/25 02:08:19;;;;;;;1999.90;999.90;;;;;;;12.63;81.69;95918.84;5133938;27;20389;-63
2023/10/25 02:10:46;;;;;;;1999.90;999.90;;;;;;;12.63;81.90;95903.97;5134107;27;20136;-64
2023/10/25 02:13:13;;;;;;;1999.90;999.90;;;;;;;12.61;82.12;95907.56;5133988;28;20051;-63
2023/10/25 02:15:41;;;;;;;1999.90;999.90;;;;;;;12.63;81.70;95910.97;5133871;28;20138;-64
2023/10/25 02:18:08;;;;;;;1999.90;999.90;;;;;;;12.60;81.72;95911.13;5133813;27;20448;-62
2023/10/25 02:20:35;;;;;;;1999.90;999.90;;;;;;;12.56;81.96;95918.34;5133912;27;20045;-64
2023/10/25 02:23:02;;;;;;;1999.90;999.90;;;;;;;12.54;81.24;95909.72;5133841;27;20072;-64
2023/10/25 02:25:29;;;;;;;1999.90;999.90;;;;;;;12.51;81.18;95902.00;5133919;27;20559;-64
2023/10/25 02:27:56;;;;;;;1999.90;999.90;;;;;;;12.47;81.82;95909.22;5134039;27;20434;-64
2023/10/25 02:30:24;;;;;;;1999.90;999.90;;;;;;;12.45;81.86;95918.09;5134762;27;20095;-63
2023/10/25 02:32:52;;;;;;;1999.90;999.90;;;;;;;12.44;81.83;95917.25;5137731;27;20054;-63
2023/10/25 02:35:19;;;;;;;1999.90;999.90;;;;;;;12.41;81.84;95909.56;5138145;27;20103;-63
2023/10/25 02:37:46;;;;;;;1999.90;999.90;;;;;;;12.35;81.98;95909.91;5137906;27;20051;-63
2023/10/25 02:40:13;;;;;;;1999.90;999.90;;;;;;;12.34;81.42;95903.78;5137783;27;20039;-63
2023/10/25 02:42:44;;;;;;;1999.90;999.90;;;;;;;12.30;81.33;95904.03;5137705;27;20087;-63
2023/10/25 02:45:11;;;;;;;1999.90;999.90;;;;;;;12.31;81.01;95911.00;5137677;27;20053;-62
2023/10/25 02:47:38;;;;;;;1999.90;999.90;;;;;;;12.19;81.91;95908.09;5137704;27;20103;-63
2023/10/25 02:50:08;;;;;;;1999.90;999.90;;;;;;;12.15;83.76;95906.59;5137490;27;20062;-62
2023/10/25 02:52:35;;;;;;;1999.90;999.90;;;;;;;12.16;82.60;95899.56;5137603;27;20043;-64
2023/10/25 02:55:02;;;;;;;1999.90;999.90;;;;;;;12.12;82.86;95897.13;5137500;27;20122;-63
2023/10/25 02:57:29;;;;;;;1999.90;999.90;;;;;;;12.10;83.34;95896.34;5137330;27;20047;-63
2023/10/25 02:59:56;;;;;;;1999.90;999.90;;;;;;;12.11;83.28;95900.69;5137340;27;20051;-64
2023/10/25 03:02:23;;;;;;;1999.90;999.90;;;;;;;12.15;83.14;95906.59;5137491;27;20105;-63
2023/10/25 03:04:50;;;;;;;1999.90;999.90;;;;;;;12.16;82.52;95916.13;5137320;27;20083;-62
2023/10/25 03:07:19;;;;;;;1999.90;999.90;;;;;;;12.13;82.44;95904.03;5137430;27;20480;-63
2023/10/25 03:09:46;;;;;;;1999.90;999.90;;;;;;;12.14;82.44;95915.38;5137247;27;20071;-63
2023/10/25 03:12:14;;;;;;;1999.90;999.90;;;;;;;12.15;82.31;95937.19;5137224;27;20047;-63
2023/10/25 03:14:41;;;;;;;1999.90;999.90;;;;;;;12.16;82.13;95942.34;5137121;27;20475;-64
2023/10/25 03:17:08;;;;;;;1999.90;999.90;;;;;;;12.15;81.79;95940.66;5136985;27;20531;-64
2023/10/25 03:19:36;;;;;;;1999.90;999.90;;;;;;;12.18;81.45;95939.66;5136941;27;20460;-63
2023/10/25 03:22:03;;;;;;;1999.90;999.90;;;;;;;12.17;81.46;95930.94;5136979;27;20104;-62
2023/10/25 03:24:31;;;;;;;1999.90;999.90;;;;;;;12.11;82.77;95924.28;5136912;27;20059;-62
2023/10/25 03:26:59;;;;;;;1999.90;999.90;;;;;;;12.07;83.47;95911.41;5136952;27;20047;-63
2023/10/25 03:29:26;;;;;;;1999.90;999.90;;;;;;;12.07;84.05;95898.31;5136938;27;20132;-62
2023/10/25 03:31:57;;;;;;;1999.90;999.90;;;;;;;12.09;84.00;95896.44;5136917;27;20047;-63
2023/10/25 03:34:24;;;;;;;1999.90;999.90;;;;;;;12.08;83.76;95885.13;5136641;27;20060;-62
2023/10/25 03:36:52;;;;;;;1999.90;999.90;;;;;;;12.10;83.39;95882.41;5136624;27;20476;-64
2023/10/25 03:39:19;;;;;;;1999.90;999.90;;;;;;;12.08;83.22;95879.88;5136686;27;20489;-63
2023/10/25 03:41:47;;;;;;;1999.90;999.90;;;;;;;12.07;82.88;95865.06;5135703;27;20080;-63
2023/10/25 03:44:15;;;;;;;1999.90;999.90;;;;;;;12.02;82.78;95874.94;5136330;27;20049;-62
2023/10/25 03:46:42;;;;;;;1999.90;999.90;;;;;;;12.01;82.69;95875.84;5136605;27;20047;-62
2023/10/25 03:49:10;;;;;;;1999.90;999.90;;;;;;;11.97;82.48;95874.31;5136423;27;20043;-63
2023/10/25 03:51:37;;;;;;;1999.90;999.90;;;;;;;11.96;83.12;95880.50;5136465;27;20096;-63
2023/10/25 03:54:04;;;;;;;1999.90;999.90;;;;;;;11.94;82.29;95887.59;5136451;27;20051;-62
2023/10/25 03:56:33;;;;;;;1999.90;999.90;;;;;;;11.88;85.17;95881.75;5136201;27;20043;-63
2023/10/25 03:59:02;;;;;;;1999.90;999.90;;;;;;;11.84;85.02;95889.88;5136180;27;20050;-63
2023/10/25 04:01:29;;;;;;;1999.90;999.90;;;;;;;11.86;84.75;95886.22;5136258;27;20066;-64
2023/10/25 04:03:57;;;;;;;1999.90;999.90;;;;;;;11.83;84.39;95891.63;5136312;27;20097;-64
2023/10/25 04:06:24;;;;;;;1999.90;999.90;;;;;;;11.81;84.88;95893.50;5136219;27;20043;-63
2023/10/25 04:08:51;;;;;;;1999.90;999.90;;;;;;;11.83;84.05;95880.31;5136201;27;20499;-63
2023/10/25 04:11:18;;;;;;;1999.90;999.90;;;;;;;11.76;84.28;95877.16;5136160;27;20051;-63
2023/10/25 04:13:45;;;;;;;1999.90;999.90;;;;;;;11.64;85.16;95860.31;5136041;27;20067;-62
2023/10/25 04:16:14;;;;;;;1999.90;999.90;;;;;;;11.70;84.63;95865.25;5135972;27;20616;-63
2023/10/25 04:18:41;;;;;;;1999.90;999.90;;;;;;;11.67;83.75;95873.28;5135924;27;20104;-63
2023/10/25 04:21:10;;;;;;;1999.90;999.90;;;;;;;11.63;83.65;95875.19;5135836;27;20078;-63
2023/10/25 04:23:38;;;;;;;1999.90;999.90;;;;;;;11.62;84.00;95873.50;5135929;27;20043;-64
2023/10/25 04:26:06;;;;;;;1999.90;999.90;;;;;;;11.56;84.66;95867.75;5135779;27;20119;-64
2023/10/25 04:28:34;;;;;;;1999.90;999.90;;;;;;;11.57;85.31;95861.59;5135630;27;20043;-62
2023/10/25 04:31:01;;;;;;;1999.90;999.90;;;;;;;11.50;84.54;95859.28;5135624;27;20043;-62
2023/10/25 04:33:31;;;;;;;1999.90;999.90;;;;;;;11.41;84.98;95866.78;5135381;27;20062;-62
2023/10/25 04:35:58;;;;;;;1999.90;999.90;;;;;;;11.42;86.06;95871.94;5135534;27;20043;-64
2023/10/25 04:38:25;;;;;;;1999.90;999.90;;;;;;;11.48;85.98;95871.63;5135606;27;20051;-62
2023/10/25 04:40:53;;;;;;;1999.90;999.90;;;;;;;11.49;86.28;95856.75;5135519;27;20099;-64
2023/10/25 04:43:20;;;;;;;1999.90;999.90;;;;;;;11.54;86.31;95859.13;5135275;27;20049;-62
2023/10/25 04:45:47;;;;;;;1999.90;999.90;;;;;;;11.54;86.51;95854.75;5135265;27;20099;-63
2023/10/25 04:48:14;;;;;;;1999.90;999.90;;;;;;;11.60;86.04;95838.72;5135221;27;20051;-64
2023/10/25 04:50:43;;;;;;;1999.90;999.90;;;;;;;11.61;85.76;95835.16;5135235;27;20043;-63
2023/10/25 04:53:11;;;;;;;1999.90;999.90;;;;;;;11.60;86.03;95832.63;5135005;27;20043;-64
2023/10/25 04:55:40;;;;;;;1999.90;999.90;;;;;;;11.65;86.02;95848.91;5135096;27;20043;-64
2023/10/25 04:58:07;;;;;;;1999.90;999.90;;;;;;;11.65;85.96;95854.16;5135074;27;20450;-62
2023/10/25 05:00:35;;;;;;;1999.90;999.90;;;;;;;11.62;85.71;95844.69;5135219;27;20075;-63
2023/10/25 05:03:05;;;;;;;1999.90;999.90;;;;;;;11.67;87.20;95843.59;5135068;27;20051;-63
2023/10/25 05:05:32;;;;;;;1999.90;999.90;;;;;;;11.71;86.96;95851.22;5135180;27;20043;-62
2023/10/25 05:08:02;;;;;;;1999.90;999.90;;;;;;;11.71;87.88;95856.44;5134974;27;20047;-63
2023/10/25 05:10:30;;;;;;;1999.90;999.90;;;;;;;11.78;87.76;95867.47;5134914;27;20047;-63
2023/10/25 05:12:57;;;;;;;1999.90;999.90;;;;;;;11.70;87.58;95849.53;5134827;27;20078;-63
2023/10/25 05:15:27;;;;;;;1999.90;999.90;;;;;;;11.77;87.97;95865.75;5134723;27;20447;-63
2023/10/25 05:17:55;;;;;;;1999.90;999.90;;;;;;;11.81;87.73;95855.97;5134706;27;20449;-63
2023/10/25 05:20:22;;;;;;;1999.90;999.90;;;;;;;11.83;88.07;95870.66;5134722;27;20047;-63
2023/10/25 05:22:51;;;;;;;1999.90;999.90;;;;;;;11.93;87.97;95880.66;5134741;27;20054;-63
2023/10/25 05:25:21;;;;;;;1999.90;999.90;;;;;;;11.94;88.14;95866.63;5134734;27;20123;-63
2023/10/25 05:27:49;;;;;;;1999.90;999.90;;;;;;;11.98;87.51;95858.50;5134623;27;20051;-63
2023/10/25 05:30:19;;;;;;;1999.90;999.90;;;;;;;12.05;87.33;95852.94;5134500;27;20507;-63
2023/10/25 05:32:50;;;;;;;1999.90;999.90;;;;;;;12.11;87.17;95856.13;5134227;27;20082;-61
2023/10/25 05:35:17;;;;;;;;;;;;;;;12.18;87.25;95855.75;5134963;27;20082;-63
2023/10/25 05:37:44;;;;;;;1999.90;999.90;;;;;;;12.20;87.28;95848.66;5134564;27;19972;-62
2023/10/25 05:40:13;;;;;;;1999.90;999.90;;;;;;;12.23;87.31;95864.22;5134313;27;20047;-62
2023/10/25 05:42:47;;;;;;;1999.90;999.90;;;;;;;12.28;87.04;95856.94;5134343;27;20046;-61
2023/10/25 05:45:15;;;;;;;1999.90;999.90;;;;;;;12.34;86.86;95853.97;5134287;27;20054;-61
2023/10/25 05:47:43;;;;;;;1999.90;999.90;;;;;;;12.36;87.26;95840.78;5134328;27;20073;-62
2023/10/25 05:50:11;;;;;;;1999.90;999.90;;;;;;;12.40;87.57;95839.66;5134225;27;20400;-63
2023/10/25 05:52:44;;;;;;;1999.90;999.90;;;;;;;12.42;89.21;95860.56;5134188;27;20079;-61
2023/10/25 05:55:13;;;;;;;1999.90;999.90;;;;;;;12.48;89.64;95860.22;5134151;27;20054;-61
2023/10/25 05:57:42;;;;;;;1999.90;999.90;;;;;;;12.58;89.40;95871.03;5134287;27;20400;-61
2023/10/25 06:00:10;;;;;;;1999.90;999.90;;;;;;;12.62;89.34;95873.38;5134181;27;20511;-64
2023/10/25 06:02:39;;;;;;;1999.90;999.90;;;;;;;12.69;88.71;95868.66;5134220;27;20055;-62
2023/10/25 06:05:11;;;;;;;1999.90;999.90;;;;;;;12.77;88.44;95871.66;5133422;27;20047;-62
2023/10/25 06:07:39;;;;;;;1999.90;999.90;;;;;;;12.80;88.04;95857.53;5134042;28;20126;-63
2023/10/25 06:10:08;;;;;;;1999.90;999.90;;;;;;;12.83;87.88;95859.13;5133984;27;20484;-63
2023/10/25 06:12:36;;;;;;;1999.90;999.90;;;;;;;12.91;87.57;95859.53;5134044;28;20074;-62
2023/10/25 06:15:06;;;;;;;1999.90;999.90;;;;;;;12.98;87.27;95857.41;5133978;27;20096;-63
2023/10/25 06:17:33;;;;;;;1999.90;999.90;;;;;;;12.99;86.99;95859.06;5133986;27;20051;-61
2023/10/25 06:20:01;;;;;;;1999.90;999.90;;;;;;;13.04;87.13;95858.81;5133955;27;20043;-64
2023/10/25 06:22:28;;;;;;;1999.90;999.90;;;;;;;13.11;86.80;95868.88;5133845;28;20104;-63
2023/10/25 06:24:55;;;;;;;1999.90;999.90;;;;;;;13.15;86.61;95874.75;5133801;28;20039;-63
2023/10/25 06:27:22;;;;;;;1999.90;999.90;;;;;;;13.23;86.48;95877.81;5133816;27;20061;-63
2023/10/25 06:29:49;;;;;;;1999.90;999.90;;;;;;;13.22;86.39;95872.63;5133810;27;20066;-62
2023/10/25 06:32:18;;;;;;;1999.90;999.90;;;;;;;13.25;86.18;95875.91;5133760;27;20070;-63
2023/10/25 06:34:45;;;;;;;1999.90;999.90;;;;;;;13.32;85.80;95865.03;5133770;27;20062;-64
2023/10/25 06:37:13;;;;;;;1999.90;999.90;;;;;;;13.32;85.98;95863.28;5134302;28;20061;-64
2023/10/25 06:39:40;;;;;;;1999.90;999.90;;;;;;;13.39;85.81;95855.84;5133699;28;20124;-64
2023/10/25 06:42:10;;;;;;;1999.90;999.90;;;;;;;13.45;85.77;95852.84;5133785;27;20062;-62
2023/10/25 06:44:37;;;;;;;1999.90;999.90;;;;;;;13.52;85.89;95863.88;5133786;27;20050;-64
2023/10/25 06:47:06;;;;;;;1999.90;999.90;;;;;;;13.59;85.69;95864.34;5133690;27;20047;-63
2023/10/25 06:49:35;;;;;;;1999.90;999.90;;;;;;;13.67;87.15;95870.00;5133698;28;20047;-64
2023/10/25 06:52:03;;;;;;;1999.90;999.90;;;;;;;13.73;87.22;95872.22;5133633;27;20505;-63
2023/10/25 06:54:30;;;;;;;1999.90;999.90;;;;;;;13.82;86.60;95869.97;5133693;27;20104;-62
2023/10/25 06:56:58;;;;;;;1999.90;999.90;;;;;;;13.83;86.34;95872.53;5133457;27;20397;-63
2023/10/25 06:59:25;;;;;;;1999.90;999.90;;;;;;;13.86;85.96;95869.69;5133533;27;20069;-63
2023/10/25 07:02:04;;;;;;;1999.90;999.90;;;;;;;13.93;86.13;95867.53;5133487;27;20584;-63
2023/10/25 07:04:34;;;;;;;1999.90;999.90;;;;;;;13.97;86.29;95868.19;5133579;27;20118;-63
2023/10/25 07:07:06;;;;;;;1999.90;999.90;;;;;;;13.98;85.66;95851.47;5133607;27;20043;-64
2023/10/25 07:09:34;;;;;;;1999.90;999.90;;;;;;;14.07;85.54;95861.41;5133454;27;20051;-62
2023/10/25 07:12:01;;;;;;;1999.90;999.90;;;;;;;14.14;85.22;95873.22;5133555;27;20043;-63
2023/10/25 07:14:30;;;;;;;1999.90;999.90;;;;;;;14.23;85.57;95881.47;5133506;27;20458;-62
2023/10/25 07:16:58;;;;;;;1999.90;999.90;;;;;;;14.32;86.35;95880.03;5135021;27;20078;-62
2023/10/25 07:19:26;;;;;;;1999.90;999.90;;;;;;;14.35;85.40;95885.97;5136989;27;20131;-63
2023/10/25 07:21:53;;;;;;;1999.90;999.90;;;;;;;14.38;84.50;95885.75;5137052;27;20426;-62
2023/10/25 07:24:22;;;;;;;1999.90;999.90;;;;;;;14.36;84.12;95889.44;5136980;27;20053;-64
2023/10/25 07:26:49;;;;;;;1999.90;999.90;;;;;;;14.38;84.40;95872.59;5137060;27;20050;-63
2023/10/25 07:29:16;;;;;;;1999.90;999.90;;;;;;;14.36;83.79;95858.69;5137021;27;20043;-64
2023/10/25 07:31:43;;;;;;;1999.90;999.90;;;;;;;14.40;83.77;95872.50;5136896;27;20100;-63
2023/10/25 07:34:10;;;;;;;1999.90;999.90;;;;;;;14.43;83.57;95871.47;5136629;27;20130;-64
2023/10/25 07:36:37;;;;;;;1999.90;999.90;;;;;;;14.51;84.40;95867.38;5136811;27;20043;-63
2023/10/25 07:39:05;;;;;;;1999.90;999.90;;;;;;;14.64;84.73;95874.50;5136609;27;20061;-63
2023/10/25 07:41:33;;;;;;;1999.90;999.90;;;;;;;14.76;84.16;95870.22;5136876;27;20043;-62
2023/10/25 07:44:01;;;;;;;1999.90;999.90;;;;;;;14.84;83.39;95870.56;5136660;27;20144;-63
2023/10/25 07:46:28;;;;;;;1999.90;999.90;;;;;;;14.97;82.29;95869.78;5136513;27;20047;-63
2023/10/25 07:48:55;;;;;;;1999.90;999.90;;;;;;;15.07;82.08;95859.47;5137035;27;20047;-64
2023/10/25 07:51:23;;;;;;;1999.90;999.90;;;;;;;15.16;81.54;95854.44;5136909;27;20046;-62
2023/10/25 07:53:50;;;;;;;1999.90;999.90;;;;;;;15.25;81.25;95850.31;5136479;27;20492;-63
2023/10/25 07:56:18;;;;;;;1999.90;999.90;;;;;;;15.37;80.83;95848.66;5136323;27;20047;-64
2023/10/25 07:58:47;;;;;;;1999.90;999.90;;;;;;;15.51;80.08;95854.75;5136227;27;20086;-64
2023/10/25 08:01:14;;;;;;;1999.90;999.90;;;;;;;15.59;78.55;95865.59;5136367;27;20061;-63
2023/10/25 08:03:41;;;;;;;1999.90;999.90;;;;;;;15.73;77.41;95861.16;5136177;27;20043;-63
2023/10/25 08:06:09;;;;;;;1999.90;999.90;;;;;;;15.86;77.00;95864.63;5136219;27;20053;-64
2023/10/25 08:08:36;;;;;;;1999.90;999.90;;;;;;;15.98;77.71;95860.31;5136173;27;20090;-63
2023/10/25 08:11:03;;;;;;;1999.90;999.90;;;;;;;16.10;76.81;95865.69;5136029;27;20484;-64
2023/10/25 08:13:31;;;;;;;1999.90;999.90;;;;;;;16.24;76.37;95873.47;5136134;27;20073;-63
2023/10/25 08:15:59;;;;;;;1999.90;999.90;;;;;;;16.34;75.33;95872.81;5136090;27;20051;-62
2023/10/25 08:18:28;;;;;;;1999.90;999.90;;;;;;;16.41;73.88;95866.13;5135885;27;20083;-64
2023/10/25 08:20:55;;;;;;;1999.90;999.90;;;;;;;16.48;72.63;95850.69;5136019;27;20059;-63
2023/10/25 08:23:22;;;;;;;1999.90;999.90;;;;;;;16.58;71.33;95850.88;5135863;27;20047;-63
2023/10/25 08:25:50;;;;;;;1999.90;999.90;;;;;;;16.71;70.46;95871.91;5135791;27;20071;-64
2023/10/25 08:28:17;;;;;;;1999.90;999.90;;;;;;;16.83;70.51;95865.75;5135089;27;20122;-62
2023/10/25 08:30:45;;;;;;;1999.90;999.90;;;;;;;16.91;69.28;95881.00;5135561;27;20065;-63
2023/10/25 08:33:13;;;;;;;1999.90;999.90;;;;;;;17.00;69.73;95860.97;5135406;27;20138;-63
2023/10/25 08:35:40;;;;;;;1999.90;999.90;;;;;;;17.08;70.86;95866.56;5135596;27;20480;-63
2023/10/25 08:38:07;;;;;;;1999.90;999.90;;;;;;;17.16;70.02;95852.78;5135417;27;20043;-63
2023/10/25 08:40:39;;;;;;;1999.90;999.90;;;;;;;17.24;69.82;95860.09;5135500;27;20054;-64
2023/10/25 08:43:07;;;;;;;1999.90;999.90;;;;;;;17.33;69.43;95853.31;5135445;27;20447;-63
2023/10/25 08:45:36;;;;;;;1999.90;999.90;;;;;;;17.41;68.73;95870.25;5135493;27;20047;-65
2023/10/25 08:48:03;;;;;;;1999.90;999.90;;;;;;;17.48;68.81;95864.47;5135338;27;20053;-64
2023/10/25 08:50:32;;;;;;;1999.90;999.90;;;;;;;17.53;68.47;95860.53;5135257;27;20055;-64
2023/10/25 08:52:59;;;;;;;1999.90;999.90;;;;;;;17.63;67.48;95857.16;5135216;27;20078;-64
2023/10/25 08:55:26;;;;;;;1999.90;999.90;;;;;;;17.71;66.50;95861.88;5135532;27;20119;-62
2023/10/25 08:57:56;;;;;;;1999.90;999.90;;;;;;;17.82;67.00;95861.84;5135210;27;20051;-64
2023/10/25 09:00:23;;;;;;;1999.90;999.90;;;;;;;17.92;66.33;95864.63;5134998;27;20086;-64
2023/10/25 09:02:50;;;;;;;1999.90;999.90;;;;;;;18.04;65.63;95863.69;5135013;27;20047;-64
2023/10/25 09:05:17;;;;;;;1999.90;999.90;;;;;;;18.12;65.10;95857.78;5134876;27;20548;-64
2023/10/25 09:07:46;;;;;;;1999.90;999.90;;;;;;;18.19;64.66;95866.09;5134891;27;20051;-62
2023/10/25 09:10:15;;;;;;;1999.90;999.90;;;;;;;18.23;63.82;95861.38;5134880;27;20043;-62
2023/10/25 09:12:42;;;;;;;1999.90;999.90;;;;;;;18.31;63.56;95869.56;5134974;27;20039;-63
2023/10/25 09:15:10;;;;;;;1999.90;999.90;;;;;;;18.39;63.86;95880.38;5134759;27;20099;-62
2023/10/25 09:17:37;;;;;;;1999.90;999.90;;;;;;;18.41;63.06;95874.94;5134775;27;20051;-63
2023/10/25 09:20:08;;;;;;;1999.90;999.90;;;;;;;18.44;63.90;95883.50;5134852;27;20094;-64
2023/10/25 09:22:35;;;;;;;1999.90;999.90;;;;;;;18.53;64.22;95865.19;5134626;27;20515;-64
2023/10/25 09:25:05;;;;;;;1999.90;999.90;;;;;;;18.64;63.58;95856.38;5134676;27;20103;-64
2023/10/25 09:27:41;;;;;;;1999.90;999.90;;;;;;;18.78;63.38;95869.31;5134718;27;20047;-63
2023/10/25 09:30:14;;;;;;;1999.90;999.90;;;;;;;18.91;62.07;95863.84;5134672;27;20151;-65
2023/10/25 09:32:41;;;;;;;1999.90;999.90;;;;;;;19.00;61.18;95866.69;5134383;27;20069;-62
2023/10/25 09:35:11;;;;;;;1999.90;999.90;;;;;;;19.12;61.07;95867.53;5134424;27;20500;-62
2023/10/25 09:37:38;;;;;;;1999.90;999.90;;;;;;;19.29;60.36;95866.09;5134577;27;20434;-61
2023/10/25 09:40:07;;;;;;;1999.90;999.90;;;;;;;19.39;60.26;95853.72;5133446;27;20450;-63
2023/10/25 09:42:40;;;;;;;1999.90;999.90;;;;;;;19.50;59.79;95852.84;5134422;27;20043;-65
2023/10/25 09:45:11;;;;;;;1999.90;999.90;;;;;;;19.55;59.29;95866.56;5134290;27;20141;-62
2023/10/25 09:47:42;;;;;;;1999.90;999.90;;;;;;;19.64;58.49;95853.47;5134242;27;20053;-63
2023/10/25 09:50:21;;;;;;;1999.90;999.90;;;;;;;19.74;58.18;95850.88;5134218;27;20043;-63
2023/10/25 09:52:53;;;;;;;1999.90;999.90;;;;;;;19.88;58.16;95847.84;5134228;27;20051;-64
2023/10/25 09:55:26;;;;;;;1999.90;999.90;;;;;;;20.00;58.39;95843.28;5134172;27;20047;-63
2023/10/25 09:57:54;;;;;;;1999.90;999.90;;;;;;;20.10;57.90;95838.03;5134184;27;20065;-63
2023/10/25 10:00:22;;;;;;;1999.90;999.90;;;;;;;20.18;57.32;95822.28;5134116;27;20116;-64
2023/10/25 10:02:58;;;;;;;1999.90;999.90;;;;;;;20.33;55.92;95827.19;5134069;27;20047;-62
2023/10/25 10:05:31;;;;;;;1999.90;999.90;;;;;;;20.41;55.41;95831.84;5134174;28;20049;-65
2023/10/25 10:08:06;;;;;;;1999.90;999.90;;;;;;;20.50;55.02;95825.69;5134014;27;20052;-64
2023/10/25 10:10:40;;;;;;;1999.90;999.90;;;;;;;20.63;55.09;95828.09;5134036;28;20083;-64
2023/10/25 10:13:17;;;;;;;1999.90;999.90;;;;;;;20.78;54.62;95822.34;5134090;27;20500;-64
2023/10/25 10:16:00;;;;;;;1999.90;999.90;;;;;;;20.89;54.13;95822.19;5133916;27;20043;-65
2023/10/25 10:18:33;;;;;;;1999.90;999.90;;;;;;;21.03;53.63;95814.81;5133912;27;20047;-65
2023/10/25 10:21:01;;;;;;;1999.90;999.90;;;;;;;21.15;52.74;95816.34;5133872;27;20055;-65
2023/10/25 10:23:36;;;;;;;1999.90;999.90;;;;;;;21.31;52.77;95801.63;5134000;27;20055;-63
2023/10/25 10:26:05;;;;;;;1999.90;999.90;;;;;;;21.45;52.17;95802.97;5134211;27;20054;-64
2023/10/25 10:28:46;;;;;;;1999.90;999.90;;;;;;;21.55;52.02;95792.31;5133810;28;20053;-65
2023/10/25 10:31:14;;;;;;;1999.90;999.90;;;;;;;21.61;51.08;95805.00;5133842;27;20108;-63
2023/10/25 10:33:46;;;;;;;1999.90;999.90;;;;;;;21.66;50.79;95797.44;5133548;27;20043;-64
2023/10/25 10:36:25;;;;;;;1999.90;999.90;;;;;;;21.68;50.67;95792.84;5133861;27;20400;-64
2023/10/25 10:39:11;;;;;;;1999.90;999.90;;;;;;;21.75;50.09;95795.75;5133672;28;20409;-61
2023/10/25 10:41:39;;;;;;;1999.90;999.90;;;;;;;21.81;49.90;95786.34;5133932;27;20127;-65
2023/10/25 10:44:07;;;;;;;1999.90;999.90;;;;;;;21.87;49.92;95788.41;5133929;27;20044;-64
2023/10/25 10:46:43;;;;;;;1999.90;999.90;;;;;;;22.04;49.99;95788.63;5133658;27;20048;-64
2023/10/25 10:49:13;;;;;;;1999.90;999.90;;;;;;;22.13;49.19;95779.75;5133748;28;20054;-63
2023/10/25 10:51:40;;;;;;;1999.90;999.90;;;;;;;22.22;48.95;95781.50;5134803;27;20047;-65
2023/10/25 10:54:07;;;;;;;1999.90;999.90;;;;;;;22.26;48.92;95781.19;5137810;27;20039;-62
2023/10/25 10:56:35;;;;;;;1999.90;999.90;;;;;;;22.36;49.14;95771.31;5137601;27;20055;-62
2023/10/25 10:59:05;;;;;;;1999.90;999.90;;;;;;;22.47;48.55;95767.59;5137488;27;20103;-63